Nearby METAR Reports

 

KADS - Dallas/Addison, Texas, USA
Distance from station: SSW 10mi, 16km
Updated: Mon, 22-May-2017 11:55pm CDT
Clear
Clear
 Wind from SSE
Wind: SSE 9 mph , 15 km/h
Temperature: 66°F , 19°C
Dew Point: 61°F , 16°C
Humidity: 83%
Barometer: 29.94 inHg , 1013.9 hPa
Clouds: Clear
Visibility: 10 miles , 16 km
2017/05/23 04:55 KADS 230455Z AUTO 16008KT 10SM CLR 19/16 A2994 RMK AO2 LTG DSNT N AND NW T01860159
KTKI - Mckinney, Texas, USA
Distance from station: ENE 11mi, 18km
Updated: Mon, 22-May-2017 11:53pm CDT
Few Clouds
Few Clouds
 Wind from SE
Wind: SE 7 mph , 11 km/h
Temperature: 64°F , 18°C
Dew Point: 63°F , 17°C
Humidity: 94%
Barometer: 29.93 inHg , 1013.5 hPa
Clouds: Few Clouds
Visibility: 10 miles , 16 km
Cloud details: Few Clouds 1200 ft
Few Clouds 10000 ft
2017/05/23 04:53 KTKI 230453Z AUTO 14006KT 10SM FEW012 FEW100 18/17 A2993 RMK AO2 LTG DSNT N SLP136 T01780167
 
KDAL - Dallas/Love Fld, Texas, USA
Distance from station: SSW 18mi, 30km
Updated: Mon, 22-May-2017 11:53pm CDT
Mostly cloudy
Mostly cloudy
 Wind from SE
Wind: SE 13 mph , 20 km/h
Temperature: 66°F , 19°C
Dew Point: 61°F , 16°C
Humidity: 83%
Barometer: 29.92 inHg , 1013.2 hPa
Clouds: Mostly cloudy
Visibility: 10 miles , 16 km
Cloud details: Few Clouds 5000 ft
Few Clouds 21000 ft
Mostly cloudy 25000 ft
2017/05/23 04:53 KDAL 230453Z 14011KT 10SM FEW050 FEW210 BKN250 19/16 A2992 RMK AO2 SLP127 FRQ LTGIC DSNT NW CB DSNT NW T01940161
KDFW - Dallas/Ft Worth, Texas, USA
Distance from station: SW 21mi, 34km
Updated: Mon, 22-May-2017 11:53pm CDT
Mostly cloudy
Mostly cloudy
 Wind from SE
Wind: SE 9 mph , 15 km/h
Temperature: 66°F , 19°C
Dew Point: 63°F , 17°C
Humidity: 88%
Barometer: 29.91 inHg , 1012.9 hPa
Clouds: Mostly cloudy
Visibility: 10 miles , 16 km
Cloud details: Few Clouds 4000 ft
Partly cloudy 8000 ft
Mostly cloudy 20000 ft
Mostly cloudy 25000 ft
2017/05/23 04:53 KDFW 230453Z 14008KT 10SM FEW040 SCT080 BKN200 BKN250 19/17 A2991 RMK AO2 SLP120 OCNL LTGIC DSNT NW CB DSNT NW T01940167
 
KF46 - Rockwall, Texas, USA
Distance from station: ESE 22mi, 35km
Updated: Mon, 22-May-2017 11:55pm CDT
Clear
Clear
 Wind from SSE
Wind: SSE 7 mph , 11 km/h
Temperature: 63°F , 17°C
Dew Point: 63°F , 17°C
Humidity: 100%
Barometer: 29.94 inHg , 1013.9 hPa
Clouds: Clear
Visibility: 10 miles , 16 km
2017/05/23 04:55 KF46 230455Z AUTO 15006KT 10SM CLR 17/17 A2994 RMK AO2 LTG DSNT N T01710165
KDTO - Denton, Texas, USA
Distance from station: WNW 27mi, 43km
Updated: Mon, 22-May-2017 11:53pm CDT
Clear
Clear
 Wind from SE
Wind: SE 9 mph , 15 km/h
Temperature: 66°F , 19°C
Dew Point: 63°F , 17°C
Humidity: 88%
Barometer: 29.92 inHg , 1013.2 hPa
Clouds: Clear
Visibility: 10 miles , 16 km
2017/05/23 04:53 KDTO 230453Z AUTO 14008KT 10SM CLR 19/17 A2992 RMK AO2 LTG DSNT NW SLP123 T01940167
 
KHQZ - Mesquite, Texas, USA
Distance from station: SSE 28mi, 44km
Updated: Mon, 22-May-2017 11:55pm CDT

 Wind from calm
Wind: Calm
Temperature: 63°F , 17°C
Dew Point: 61°F , 16°C
Humidity: 94%
Barometer: 29.94 inHg , 1013.9 hPa
2017/05/23 04:55 KHQZ 230455Z AUTO 00000KT 17/16 A2994 RMK AO1 T01670160
KRBD - Dallas/Redbird, Texas, USA
Distance from station: SSW 30mi, 48km
Updated: Mon, 22-May-2017 11:53pm CDT
Few Clouds
Few Clouds
 Wind from SE
Wind: SE 7 mph , 11 km/h
Temperature: 64°F , 18°C
Dew Point: 63°F , 17°C
Humidity: 94%
Barometer: 29.92 inHg , 1013.2 hPa
Clouds: Few Clouds
Visibility: 10 miles , 16 km
Cloud details: Few Clouds 900 ft
2017/05/23 04:53 KRBD 230453Z AUTO 13006KT 10SM FEW009 18/17 A2992 RMK AO2 SLP125 T01830172
 
KGPM - Grand Prairie, Texas, USA
Distance from station: SSW 33mi, 53km
Updated: Mon, 22-May-2017 11:55pm CDT
Clear
Clear
 Wind from ESE
Wind: ESE 3 mph , 6 km/h
Temperature: 66°F , 19°C
Dew Point: 61°F , 16°C
Humidity: 83%
Barometer: 29.94 inHg , 1013.9 hPa
Clouds: Clear
Visibility: 10 miles , 16 km
2017/05/23 04:55 KGPM 230455Z AUTO 12003KT 10SM CLR 19/16 A2994 RMK AO2 T01880157
KAFW - Ft Worth/Allianc, Texas, USA
Distance from station: WSW 34mi, 55km
Updated: Mon, 22-May-2017 11:53pm CDT
Overcast
Overcast
 Wind from SSE
Wind: SSE 6 mph , 9 km/h
Temperature: 66°F , 19°C
Dew Point: 63°F , 17°C
Humidity: 88%
Barometer: 29.91 inHg , 1012.9 hPa
Clouds: Overcast
Visibility: 10 miles , 16 km
Cloud details: Few Clouds 4500 ft
Overcast 25000 ft
2017/05/23 04:53 KAFW 230453Z 15005KT 10SM FEW045 OVC250 19/17 A2991 RMK AO2 SLP119 FRQ LTGICCC DSNT NW-NE CB DSNT NW-NE MOV SE T01940167 $
 
KLNC - Lancaster, Texas, USA
Distance from station: S 36mi, 58km
Updated: Mon, 22-May-2017 11:55pm CDT
Partly cloudy
Partly cloudy
 Wind from calm
Wind: Calm
Temperature: 63°F , 17°C
Dew Point: 61°F , 16°C
Humidity: 94%
Barometer: 29.95 inHg , 1014.2 hPa
Clouds: Partly cloudy
Visibility: 10 miles , 16 km
Cloud details: Partly cloudy 1000 ft
Partly cloudy 8500 ft
2017/05/23 04:55 KLNC 230455Z AUTO 00000KT 10SM SCT010 SCT085 17/16 A2995 RMK AO2 LTG DSNT N AND NW T01710160
KGKY - Arlington, Texas, USA
Distance from station: SSW 36mi, 59km
Updated: Mon, 22-May-2017 11:53pm CDT
Clear
Clear
 Wind from ESE
Wind: ESE 7 mph , 11 km/h
Temperature: 66°F , 19°C
Dew Point: 61°F , 16°C
Humidity: 83%
Barometer: 29.92 inHg , 1013.2 hPa
Clouds: Clear
Visibility: 10 miles , 16 km
2017/05/23 04:53 KGKY 230453Z AUTO 12006KT 10SM CLR 19/16 A2992 RMK AO2 SLP123 T01890161
 
KTRL - Terrell, Texas, USA
Distance from station: SE 39mi, 63km
Updated: Mon, 22-May-2017 11:53pm CDT
Clear
Clear
 Wind from SE
Wind: SE 7 mph , 11 km/h
Temperature: 63°F , 17°C
Dew Point: 59°F , 15°C
Humidity: 88%
Barometer: 29.94 inHg , 1013.9 hPa
Clouds: Clear
Visibility: 10 miles , 16 km
2017/05/23 04:53 KTRL 230453Z AUTO 13006KT 10SM CLR 17/15 A2994 RMK AO2 SLP133 T01720150
KGVT - Greenville/Major, Texas, USA
Distance from station: E 40mi, 64km
Updated: Mon, 22-May-2017 11:55pm CDT
Clear
Clear
 Wind from calm
Wind: Calm
Temperature: 63°F , 17°C
Dew Point: 61°F , 16°C
Humidity: 94%
Barometer: 29.95 inHg , 1014.2 hPa
Clouds: Clear
Visibility: 10 miles , 16 km
2017/05/23 04:55 KGVT 230455Z AUTO 00000KT 10SM CLR 17/16 A2995 RMK AO2 LTG DSNT N AND NW
 
KFTW - Fort Worth, Texas, USA
Distance from station: WSW 40mi, 65km
Updated: Mon, 22-May-2017 11:53pm CDT
Few Clouds
Few Clouds
 Wind from SE
Wind: SE 12 mph , 19 km/h
Temperature: 68°F , 20°C
Dew Point: 63°F , 17°C
Humidity: 83%
Barometer: 29.91 inHg , 1012.9 hPa
Clouds: Few Clouds
Visibility: 10 miles , 16 km
Cloud details: Few Clouds 3200 ft
2017/05/23 04:53 KFTW 230453Z 14010KT 10SM FEW032 20/17 A2991 RMK AO2 SLP120 T02000172
KGYI - Sherman/Denison, Texas, USA
Distance from station: N 43mi, 69km
Updated: Mon, 22-May-2017 11:35pm CDT
Thunderstorm, Mostly cloudy
Thunderstorm, Mostly cloudy
 Wind from calm
Wind: Calm
Temperature: 66°F , 19°C
Dew Point: 59°F , 15°C
Humidity: 78%
Barometer: 29.98 inHg , 1015.2 hPa
Summary: Thunderstorm
Clouds: Mostly cloudy
Visibility: 10 miles , 16 km
Cloud details: Partly cloudy 5500 ft
Partly cloudy 6500 ft
Mostly cloudy 7500 ft
2017/05/23 04:35 KGYI 230435Z AUTO 00000KT 10SM TS SCT055 SCT065 BKN075 19/15 A2998 RMK AO2 LTG DSNT NW THRU NE T01870154
 
KNFW - Fort Worth Nas, Texas, USA
Distance from station: WSW 45mi, 73km
Updated: Mon, 22-May-2017 10:52pm CDT
Clear
Clear
 Wind from SSE
Wind: SSE 9 mph , 15 km/h
Temperature: 70°F , 21°C
Dew Point: 63°F , 17°C
Humidity: 78%
Barometer: 29.94 inHg , 1013.9 hPa
Clouds: Clear
Visibility: 10 miles , 16 km
2017/05/23 03:52 KNFW 230352Z 16008KT 10SM CLR 21/17 A2994 RMK AO2 SLP123 T02110167 $
KGLE - Gainesville, Texas, USA
Distance from station: NW 46mi, 74km
Updated: Mon, 22-May-2017 11:55pm CDT
Light rain, Overcast
Light rain, Overcast
 Wind from S
Wind: S 6 mph , 9 km/h
Temperature: 68°F , 20°C
Dew Point: 61°F , 16°C
Humidity: 78%
Barometer: 29.96 inHg , 1014.6 hPa
Summary: Light rain
Clouds: Overcast
Visibility: 10 miles , 16 km
Cloud details: Mostly cloudy 6000 ft
Mostly cloudy 6500 ft
Overcast 8500 ft
2017/05/23 04:55 KGLE 230455Z AUTO 17005KT 10SM -RA BKN060 BKN065 OVC085 20/16 A2996 RMK AO2 T01950155
 
KJWY - Midlothian/Wax, Texas, USA
Distance from station: SSW 46mi, 74km
Updated: Mon, 22-May-2017 11:55pm CDT
Partly cloudy
Partly cloudy
 Wind from calm
Wind: Calm
Temperature: 63°F , 17°C
Dew Point: 63°F , 17°C
Humidity: 100%
Barometer: 29.94 inHg , 1013.9 hPa
Clouds: Partly cloudy
Visibility: 7 miles , 11 km
Cloud details: Partly cloudy 900 ft
2017/05/23 04:55 KJWY 230455Z AUTO 00000KT 7SM SCT009 17/17 A2994 RMK AO2 T01740174
KFWS - Fort Worth/88d, Texas, USA
Distance from station: SW 49mi, 79km
Updated: Mon, 22-May-2017 11:55pm CDT
Clear
Clear
 Wind from ESE
Wind: ESE 3 mph , 6 km/h
Temperature: 66°F , 19°C
Dew Point: 61°F , 16°C
Humidity: 83%
Barometer: 29.92 inHg , 1013.2 hPa
Clouds: Clear
Visibility: 10 miles , 16 km
2017/05/23 04:55 KFWS 230455Z AUTO 11003KT 10SM CLR 19/16 A2992 RMK AO2 LTG DSNT N T01880160